Terminal Aerodrome Forecast
Issued by NWS St Louis, MO

Home | Current Version | Previous Version | Text Only | Print | Product List | Glossary On
Versions: 1 2 3 4 5 6 7 8 9 10 11 12 13 14 15 16 17 18 19 20
000
FTUS43 KLSX 152100 AAA
TAFCOU
TAF AMD
KCOU 152120Z 1521/1618 23016G26KT P6SM BKN020
      TEMPO 1522/1524 5SM -DZ BR OVC010
     FM160000 25015G25KT P6SM OVC012
     FM160900 29016G26KT P6SM OVC012=

USA.gov is the U.S. government's official web portal to all federal, state and local government web resources and services.